createdAt,value
2017-07-31T00:00:16.753Z,940
2017-07-31T00:00:44.940Z,939.96
2017-07-31T00:01:13.050Z,939.95
2017-07-31T00:01:41.142Z,939.98
2017-07-31T00:02:09.343Z,939.98
2017-07-31T00:02:37.534Z,940
2017-07-31T00:03:05.584Z,939.99
2017-07-31T00:03:33.815Z,939.97
2017-07-31T00:04:01.953Z,939.97
2017-07-31T00:04:30.048Z,939.96
2017-07-31T00:04:58.171Z,939.98
2017-07-31T00:05:26.409Z,939.99
2017-07-31T00:05:54.539Z,940.02
2017-07-31T00:06:22.624Z,940.03
2017-07-31T00:06:50.716Z,940
2017-07-31T00:07:18.910Z,940
2017-07-31T00:07:46.846Z,940.01
2017-07-31T00:08:15.048Z,940.02
2017-07-31T00:08:43.057Z,940.05
2017-07-31T00:09:11.039Z,940.04
2017-07-31T00:09:39.150Z,940.04
2017-07-31T00:10:07.464Z,940.07
2017-07-31T00:10:35.604Z,940.03
2017-07-31T00:11:03.783Z,940.08
2017-07-31T00:11:31.917Z,940.09
2017-07-31T00:12:00.001Z,940.05
2017-07-31T00:12:28.126Z,940.07
2017-07-31T00:12:56.240Z,940.09
2017-07-31T00:13:24.435Z,940.07
2017-07-31T00:13:52.503Z,940.04
2017-07-31T00:14:20.546Z,940.03
2017-07-31T00:14:48.590Z,940.07
2017-07-31T00:15:16.934Z,940.05
2017-07-31T00:15:45.005Z,940.04
2017-07-31T00:16:12.989Z,940.02
2017-07-31T00:16:41.221Z,940.03
2017-07-31T00:17:09.290Z,940.03
2017-07-31T00:17:37.497Z,940.03
2017-07-31T00:18:05.643Z,940.03
2017-07-31T00:18:33.848Z,940.05
2017-07-31T00:19:01.921Z,940.05
2017-07-31T00:19:30.058Z,940
2017-07-31T00:19:58.101Z,940.03
2017-07-31T00:20:26.289Z,939.99
2017-07-31T00:20:54.488Z,939.97
2017-07-31T00:21:22.549Z,940.03
2017-07-31T00:21:50.678Z,939.99
2017-07-31T00:22:18.853Z,939.99
2017-07-31T00:22:47.098Z,940.02
2017-07-31T00:23:15.246Z,940.01
2017-07-31T00:23:43.464Z,940
2017-07-31T00:24:11.484Z,940
2017-07-31T00:24:39.583Z,940.02
2017-07-31T00:25:07.807Z,940.01
2017-07-31T00:25:35.842Z,940.01
2017-07-31T00:26:04.014Z,939.99
2017-07-31T00:26:32.120Z,939.99
2017-07-31T00:27:00.191Z,940
2017-07-31T00:27:28.211Z,940.02
2017-07-31T00:27:56.399Z,940.03
2017-07-31T00:28:24.608Z,940.04
2017-07-31T00:28:52.602Z,940.03
2017-07-31T00:29:20.730Z,940.02
2017-07-31T00:29:48.867Z,940.06
2017-07-31T00:30:17.057Z,940.02
2017-07-31T00:30:45.383Z,939.99
2017-07-31T00:31:13.513Z,940.01
2017-07-31T00:31:41.630Z,940.01
2017-07-31T00:32:09.851Z,939.97
2017-07-31T00:32:38.080Z,940
2017-07-31T00:33:06.224Z,939.99
2017-07-31T00:33:34.330Z,940
2017-07-31T00:34:02.440Z,939.96
2017-07-31T00:34:30.578Z,940
2017-07-31T00:34:58.793Z,939.97
2017-07-31T00:35:26.948Z,939.99
2017-07-31T00:35:55.118Z,939.99
2017-07-31T00:36:23.161Z,940
2017-07-31T00:36:51.360Z,939.98
2017-07-31T00:37:19.547Z,939.98
2017-07-31T00:37:47.610Z,939.97
2017-07-31T00:38:15.789Z,939.97
2017-07-31T00:38:43.930Z,939.96
2017-07-31T00:39:12.034Z,940.01
2017-07-31T00:39:40.024Z,940
2017-07-31T00:40:08.156Z,940.01
2017-07-31T00:40:36.471Z,939.98
2017-07-31T00:41:04.591Z,939.99
2017-07-31T00:41:32.787Z,940.01
2017-07-31T00:42:00.896Z,939.99
2017-07-31T00:42:29.089Z,939.96
2017-07-31T00:42:57.197Z,940
2017-07-31T00:43:25.430Z,939.98
2017-07-31T00:43:53.617Z,939.98
2017-07-31T00:44:21.831Z,939.98
2017-07-31T00:44:49.849Z,939.96
2017-07-31T00:45:18.093Z,939.95
2017-07-31T00:45:46.408Z,939.95
2017-07-31T00:46:14.629Z,939.95
2017-07-31T00:46:42.714Z,939.95
2017-07-31T00:47:10.873Z,939.95
2017-07-31T00:47:39.093Z,939.91
2017-07-31T00:48:07.335Z,939.9
2017-07-31T00:48:35.377Z,939.92
2017-07-31T00:49:03.576Z,939.93
2017-07-31T00:49:31.808Z,939.95
2017-07-31T00:49:59.943Z,939.91
2017-07-31T00:50:28.055Z,939.9
2017-07-31T00:50:56.311Z,939.9
2017-07-31T00:51:24.541Z,939.95
2017-07-31T00:51:52.743Z,939.94
2017-07-31T00:52:20.885Z,939.95
2017-07-31T00:52:49.132Z,939.94
2017-07-31T00:53:17.308Z,939.92
2017-07-31T00:53:45.532Z,939.95
2017-07-31T00:54:13.594Z,939.93
2017-07-31T00:54:41.813Z,939.92
2017-07-31T00:55:10.020Z,939.93
2017-07-31T00:55:38.299Z,939.9
2017-07-31T00:56:06.436Z,939.94
2017-07-31T00:56:34.472Z,939.93
2017-07-31T00:57:02.674Z,939.94
2017-07-31T00:57:30.900Z,939.91
2017-07-31T00:57:59.017Z,939.94
2017-07-31T00:58:27.224Z,939.96
2017-07-31T00:58:55.391Z,939.95
2017-07-31T00:59:23.552Z,939.93
2017-07-31T00:59:51.664Z,939.96
2017-07-31T01:00:19.839Z,939.95
2017-07-31T01:00:48.144Z,939.93
2017-07-31T01:01:16.341Z,939.93
2017-07-31T01:01:44.444Z,939.96
2017-07-31T01:02:12.630Z,939.97
2017-07-31T01:02:40.741Z,939.96
2017-07-31T01:03:08.838Z,939.99
2017-07-31T01:03:36.971Z,939.95
2017-07-31T01:04:05.088Z,939.95
2017-07-31T01:04:33.290Z,939.94
2017-07-31T01:05:01.531Z,939.95
2017-07-31T01:05:29.655Z,939.95
2017-07-31T01:05:57.822Z,939.92
2017-07-31T01:06:25.956Z,939.92
2017-07-31T01:06:54.124Z,939.9
2017-07-31T01:07:22.246Z,939.9
2017-07-31T01:07:50.326Z,939.85
2017-07-31T01:08:18.450Z,939.91
2017-07-31T01:08:46.556Z,939.91
2017-07-31T01:09:14.689Z,939.9
2017-07-31T01:09:42.910Z,939.86
2017-07-31T01:10:11.035Z,939.91
2017-07-31T01:10:39.238Z,939.86
2017-07-31T01:11:07.548Z,939.88
2017-07-31T01:11:35.729Z,939.87
2017-07-31T01:12:03.945Z,939.86
2017-07-31T01:12:31.949Z,939.86
2017-07-31T01:13:00.038Z,939.86
2017-07-31T01:13:28.246Z,939.85
2017-07-31T01:13:56.364Z,939.84
2017-07-31T01:14:24.608Z,939.88
2017-07-31T01:14:52.634Z,939.89
2017-07-31T01:15:20.736Z,939.91
2017-07-31T01:15:48.909Z,939.86
2017-07-31T01:16:17.234Z,939.88
2017-07-31T01:16:45.428Z,939.89
2017-07-31T01:17:13.651Z,939.87
2017-07-31T01:17:41.840Z,939.87
2017-07-31T01:18:10.091Z,939.89
2017-07-31T01:18:38.224Z,939.86
2017-07-31T01:19:06.439Z,939.84
2017-07-31T01:19:34.419Z,939.88
2017-07-31T01:20:02.545Z,939.87
2017-07-31T01:20:30.724Z,939.86
2017-07-31T01:20:58.901Z,939.87
2017-07-31T01:21:26.876Z,939.85
2017-07-31T01:21:54.959Z,939.87
2017-07-31T01:22:23.105Z,939.89
2017-07-31T01:22:51.112Z,939.9
2017-07-31T01:23:19.089Z,939.88
2017-07-31T01:23:47.250Z,939.9
2017-07-31T01:24:15.457Z,939.88
2017-07-31T01:24:43.532Z,939.88
2017-07-31T01:25:11.683Z,939.87
2017-07-31T01:25:39.701Z,939.89
2017-07-31T01:26:07.955Z,939.89
2017-07-31T01:26:36.136Z,939.91
2017-07-31T01:27:04.146Z,939.9
2017-07-31T01:27:32.339Z,939.88
2017-07-31T01:28:00.412Z,939.9
2017-07-31T01:28:28.614Z,939.92
2017-07-31T01:28:56.781Z,939.91
2017-07-31T01:29:24.886Z,939.93
2017-07-31T01:29:53.076Z,939.86
2017-07-31T01:30:21.204Z,939.9
2017-07-31T01:30:49.375Z,939.89
2017-07-31T01:31:17.669Z,939.9
2017-07-31T01:31:45.890Z,939.92
2017-07-31T01:32:14.054Z,939.9
2017-07-31T01:32:42.282Z,939.91
2017-07-31T01:33:10.459Z,939.88
2017-07-31T01:33:38.473Z,939.87
2017-07-31T01:34:06.684Z,939.89
2017-07-31T01:34:34.898Z,939.87
2017-07-31T01:35:03.023Z,939.88
2017-07-31T01:35:31.261Z,939.85
2017-07-31T01:35:59.366Z,939.83
2017-07-31T01:36:27.453Z,939.87
2017-07-31T01:36:55.619Z,939.86
2017-07-31T01:37:23.816Z,939.87
2017-07-31T01:37:51.930Z,939.88
2017-07-31T01:38:20.112Z,939.88
2017-07-31T01:38:48.246Z,939.88
2017-07-31T01:39:16.378Z,939.88
2017-07-31T01:39:44.577Z,939.89
2017-07-31T01:40:12.764Z,939.87
2017-07-31T01:40:40.852Z,939.83
2017-07-31T01:41:09.092Z,939.83
2017-07-31T01:41:37.160Z,939.8
2017-07-31T01:42:05.378Z,939.81
2017-07-31T01:42:33.497Z,939.8
2017-07-31T01:43:01.680Z,939.79
2017-07-31T01:43:29.702Z,939.77
2017-07-31T01:43:57.819Z,939.76
2017-07-31T01:44:26.033Z,939.75
2017-07-31T01:44:54.269Z,939.76
2017-07-31T01:45:22.301Z,939.74
2017-07-31T01:45:50.427Z,939.76
2017-07-31T01:46:18.512Z,939.74
2017-07-31T01:46:46.658Z,939.72
2017-07-31T01:47:14.714Z,939.69
2017-07-31T01:47:42.806Z,939.68
2017-07-31T01:48:11.008Z,939.69
2017-07-31T01:48:39.099Z,939.7
2017-07-31T01:49:07.306Z,939.68
2017-07-31T01:49:35.527Z,939.69
2017-07-31T01:50:03.746Z,939.7
2017-07-31T01:50:31.836Z,939.68
2017-07-31T01:50:59.962Z,939.68
2017-07-31T01:51:28.293Z,939.67
2017-07-31T01:51:56.409Z,939.67
2017-07-31T01:52:24.625Z,939.67
2017-07-31T01:52:52.715Z,939.68
2017-07-31T01:53:20.826Z,939.65
2017-07-31T01:53:49.005Z,939.65
2017-07-31T01:54:17.128Z,939.67
2017-07-31T01:54:45.150Z,939.66
2017-07-31T01:55:13.262Z,939.67
2017-07-31T01:55:41.497Z,939.63
2017-07-31T01:56:09.708Z,939.65
2017-07-31T01:56:37.886Z,939.66
2017-07-31T01:57:06.035Z,939.66
2017-07-31T01:57:34.277Z,939.65
2017-07-31T01:58:02.308Z,939.64
2017-07-31T01:58:30.358Z,939.65
2017-07-31T01:58:58.369Z,939.65
2017-07-31T01:59:26.462Z,939.63
2017-07-31T01:59:54.639Z,939.63
2017-07-31T02:00:22.900Z,939.61
2017-07-31T02:00:51.133Z,939.61
2017-07-31T02:01:19.238Z,939.6
2017-07-31T02:01:47.433Z,939.59
2017-07-31T02:02:15.612Z,939.6
2017-07-31T02:02:43.784Z,939.61
2017-07-31T02:03:11.801Z,939.58
2017-07-31T02:03:39.865Z,939.59
2017-07-31T02:04:07.950Z,939.55
2017-07-31T02:04:36.150Z,939.55
2017-07-31T02:05:04.354Z,939.56
2017-07-31T02:05:32.572Z,939.52
2017-07-31T02:06:00.696Z,939.56
2017-07-31T02:06:29.013Z,939.58
2017-07-31T02:06:57.181Z,939.59
2017-07-31T02:07:25.379Z,939.57
2017-07-31T02:07:53.604Z,939.54
2017-07-31T02:08:21.845Z,939.58
2017-07-31T02:08:50.061Z,939.57
2017-07-31T02:09:18.249Z,939.6
2017-07-31T02:09:46.355Z,939.57
2017-07-31T02:10:14.496Z,939.58
2017-07-31T02:10:42.706Z,939.58
2017-07-31T02:11:10.809Z,939.58
2017-07-31T02:11:39.110Z,939.6
2017-07-31T02:12:07.085Z,939.58
2017-07-31T02:12:35.310Z,939.6
2017-07-31T02:13:03.516Z,939.64
2017-07-31T02:13:31.741Z,939.61
2017-07-31T02:13:59.877Z,939.6
2017-07-31T02:14:28.002Z,939.6
2017-07-31T02:14:56.197Z,939.57
2017-07-31T02:15:24.117Z,939.59
2017-07-31T02:15:52.301Z,939.56
2017-07-31T02:16:20.239Z,939.56
2017-07-31T02:16:48.461Z,939.56
2017-07-31T02:17:16.520Z,939.52
2017-07-31T02:17:44.610Z,939.53
2017-07-31T02:18:12.718Z,939.5
2017-07-31T02:18:40.875Z,939.5
2017-07-31T02:19:08.975Z,939.48
2017-07-31T02:19:37.188Z,939.49
2017-07-31T02:20:05.322Z,939.5
2017-07-31T02:20:33.512Z,939.49
2017-07-31T02:21:01.604Z,939.49
2017-07-31T02:21:29.612Z,939.48
2017-07-31T02:21:57.903Z,939.48
2017-07-31T02:22:25.897Z,939.47
2017-07-31T02:22:54.113Z,939.49
2017-07-31T02:23:22.114Z,939.48
2017-07-31T02:23:50.276Z,939.46
2017-07-31T02:24:18.328Z,939.47
2017-07-31T02:24:46.525Z,939.49
2017-07-31T02:25:14.598Z,939.47
2017-07-31T02:25:42.704Z,939.45
2017-07-31T02:26:10.792Z,939.48
2017-07-31T02:26:39.033Z,939.45
2017-07-31T02:27:07.244Z,939.44
2017-07-31T02:27:35.350Z,939.46
2017-07-31T02:28:03.636Z,939.45
2017-07-31T02:28:31.741Z,939.41
2017-07-31T02:28:59.874Z,939.43
2017-07-31T02:29:28.092Z,939.45
2017-07-31T02:29:56.138Z,939.41
2017-07-31T02:30:24.367Z,939.4
2017-07-31T02:30:52.480Z,939.39
2017-07-31T02:31:20.692Z,939.44
2017-07-31T02:31:49.036Z,939.4
2017-07-31T02:32:16.887Z,939.4
2017-07-31T02:32:45.098Z,939.41
2017-07-31T02:33:13.261Z,939.39
2017-07-31T02:33:41.433Z,939.42
2017-07-31T02:34:09.639Z,939.42
2017-07-31T02:34:37.863Z,939.44
2017-07-31T02:35:05.900Z,939.43
2017-07-31T02:35:34.103Z,939.41
2017-07-31T02:36:02.208Z,939.39
2017-07-31T02:36:30.421Z,939.39
2017-07-31T02:36:58.714Z,939.4
2017-07-31T02:37:26.906Z,939.37
2017-07-31T02:37:54.989Z,939.41
2017-07-31T02:38:23.177Z,939.39
2017-07-31T02:38:51.422Z,939.37
2017-07-31T02:39:19.534Z,939.38
2017-07-31T02:39:47.771Z,939.4
2017-07-31T02:40:15.960Z,939.39
2017-07-31T02:40:44.104Z,939.39
2017-07-31T02:41:12.318Z,939.41
2017-07-31T02:41:40.417Z,939.41
2017-07-31T02:42:08.695Z,939.43
2017-07-31T02:42:36.790Z,939.41
2017-07-31T02:43:04.913Z,939.39
2017-07-31T02:43:33.003Z,939.37
2017-07-31T02:44:01.223Z,939.37
2017-07-31T02:44:29.335Z,939.42
2017-07-31T02:44:57.548Z,939.41
2017-07-31T02:45:25.623Z,939.41
2017-07-31T02:45:53.728Z,939.4
2017-07-31T02:46:21.828Z,939.42
2017-07-31T02:46:50.029Z,939.42
2017-07-31T02:47:18.292Z,939.39
2017-07-31T02:47:46.355Z,939.37
2017-07-31T02:48:14.545Z,939.4
2017-07-31T02:48:42.763Z,939.37
2017-07-31T02:49:10.884Z,939.4
2017-07-31T02:49:39.086Z,939.37
2017-07-31T02:50:07.193Z,939.35
2017-07-31T02:50:35.061Z,939.33
2017-07-31T02:51:03.248Z,939.38
2017-07-31T02:51:31.465Z,939.39
2017-07-31T02:51:59.598Z,939.38
2017-07-31T02:52:27.809Z,939.37
2017-07-31T02:52:56.030Z,939.36
2017-07-31T02:53:24.133Z,939.39
2017-07-31T02:53:52.270Z,939.34
2017-07-31T02:54:20.475Z,939.34
2017-07-31T02:54:48.641Z,939.34
2017-07-31T02:55:16.827Z,939.32
2017-07-31T02:55:45.033Z,939.32
2017-07-31T02:56:13.168Z,939.3
2017-07-31T02:56:41.377Z,939.32
2017-07-31T02:57:09.694Z,939.32
2017-07-31T02:57:37.904Z,939.34
2017-07-31T02:58:05.871Z,939.29
2017-07-31T02:58:33.928Z,939.33
2017-07-31T02:59:02.088Z,939.28
2017-07-31T02:59:30.217Z,939.31
2017-07-31T02:59:58.390Z,939.29
2017-07-31T03:00:26.635Z,939.29
2017-07-31T03:00:54.764Z,939.28
2017-07-31T03:01:22.993Z,939.26
2017-07-31T03:01:51.213Z,939.28
2017-07-31T03:02:19.433Z,939.29
2017-07-31T03:02:47.546Z,939.3
2017-07-31T03:03:15.708Z,939.27
2017-07-31T03:03:43.838Z,939.27
2017-07-31T03:04:11.922Z,939.28
2017-07-31T03:04:40.118Z,939.25
2017-07-31T03:05:08.278Z,939.31
2017-07-31T03:05:36.377Z,939.29
2017-07-31T03:06:04.552Z,939.27
2017-07-31T03:06:32.679Z,939.25
2017-07-31T03:07:00.916Z,939.29
2017-07-31T03:07:29.101Z,939.29
2017-07-31T03:07:57.157Z,939.28
2017-07-31T03:08:25.346Z,939.27
2017-07-31T03:08:53.258Z,939.25
2017-07-31T03:09:21.400Z,939.27
2017-07-31T03:09:49.526Z,939.26
2017-07-31T03:10:17.649Z,939.28
2017-07-31T03:10:45.798Z,939.26
2017-07-31T03:11:13.903Z,939.25
2017-07-31T03:11:42.075Z,939.26
2017-07-31T03:12:10.454Z,939.25
2017-07-31T03:12:38.661Z,939.25
2017-07-31T03:13:06.766Z,939.21
2017-07-31T03:13:34.916Z,939.21
2017-07-31T03:14:02.928Z,939.22
2017-07-31T03:14:31.046Z,939.23
2017-07-31T03:14:59.249Z,939.19
2017-07-31T03:15:27.382Z,939.18
2017-07-31T03:15:55.469Z,939.17
2017-07-31T03:16:23.510Z,939.18
2017-07-31T03:16:51.372Z,939.18
2017-07-31T03:17:19.719Z,939.18
2017-07-31T03:17:47.782Z,939.2
2017-07-31T03:18:15.923Z,939.16
2017-07-31T03:18:43.936Z,939.15
2017-07-31T03:19:12.103Z,939.11
2017-07-31T03:19:40.187Z,939.13
2017-07-31T03:20:08.411Z,939.13
2017-07-31T03:20:36.622Z,939.14
2017-07-31T03:21:04.832Z,939.14
2017-07-31T03:21:32.936Z,939.13
2017-07-31T03:22:01.133Z,939.15
2017-07-31T03:22:29.545Z,939.13
2017-07-31T03:22:57.734Z,939.12
2017-07-31T03:23:25.938Z,939.1
2017-07-31T03:23:54.081Z,939.12
2017-07-31T03:24:22.086Z,939.11
2017-07-31T03:24:50.298Z,939.09
2017-07-31T03:25:18.398Z,939.06
2017-07-31T03:25:46.492Z,939.1
2017-07-31T03:26:14.685Z,939.07
2017-07-31T03:26:42.887Z,939.07
2017-07-31T03:27:10.959Z,939.05
2017-07-31T03:27:39.230Z,939.07
2017-07-31T03:28:07.466Z,939.05
2017-07-31T03:28:35.638Z,939.04
2017-07-31T03:29:03.824Z,939.05
2017-07-31T03:29:32.025Z,939.03
2017-07-31T03:29:59.947Z,939.06
2017-07-31T03:30:28.157Z,939.03
2017-07-31T03:30:56.359Z,939.05
2017-07-31T03:31:24.579Z,939.02
2017-07-31T03:31:52.711Z,939.04
2017-07-31T03:32:20.928Z,939.03
2017-07-31T03:32:49.051Z,939
2017-07-31T03:33:17.072Z,938.99
2017-07-31T03:33:45.260Z,939.01
2017-07-31T03:34:13.390Z,938.99
2017-07-31T03:34:41.603Z,939.01
2017-07-31T03:35:09.720Z,938.99
2017-07-31T03:35:37.857Z,939
2017-07-31T03:36:06.070Z,938.99
2017-07-31T03:36:34.146Z,938.94
2017-07-31T03:37:02.220Z,938.96
2017-07-31T03:37:30.548Z,938.97
2017-07-31T03:37:58.444Z,938.91
2017-07-31T03:38:26.617Z,938.91
2017-07-31T03:38:54.644Z,938.9
2017-07-31T03:39:22.885Z,938.93
2017-07-31T03:39:50.948Z,938.9
2017-07-31T03:40:19.186Z,938.92
2017-07-31T03:40:47.345Z,938.91
2017-07-31T03:41:15.602Z,938.86
2017-07-31T03:41:43.780Z,938.92
2017-07-31T03:42:11.924Z,938.9
2017-07-31T03:42:40.127Z,938.91
2017-07-31T03:43:08.351Z,938.88
2017-07-31T03:43:36.573Z,938.89
2017-07-31T03:44:04.584Z,938.89
2017-07-31T03:44:32.795Z,938.89
2017-07-31T03:45:00.954Z,938.89
2017-07-31T03:45:28.991Z,938.89
2017-07-31T03:45:57.196Z,938.86
2017-07-31T03:46:25.407Z,938.88
2017-07-31T03:46:53.387Z,938.89
2017-07-31T03:47:21.613Z,938.89
2017-07-31T03:47:49.933Z,938.84
2017-07-31T03:48:18.177Z,938.86
2017-07-31T03:48:46.291Z,938.89
2017-07-31T03:49:14.535Z,938.89
2017-07-31T03:49:42.569Z,938.86
2017-07-31T03:50:10.758Z,938.87
2017-07-31T03:50:38.891Z,938.88
2017-07-31T03:51:07.103Z,938.84
2017-07-31T03:51:35.257Z,938.81
2017-07-31T03:52:03.436Z,938.84
2017-07-31T03:52:31.611Z,938.84
2017-07-31T03:52:59.888Z,938.83
2017-07-31T03:53:27.982Z,938.83
2017-07-31T03:53:56.146Z,938.83
2017-07-31T03:54:24.236Z,938.83
2017-07-31T03:54:52.408Z,938.86
2017-07-31T03:55:20.628Z,938.84
2017-07-31T03:55:48.866Z,938.84
2017-07-31T03:56:17.068Z,938.83
2017-07-31T03:56:45.123Z,938.79
2017-07-31T03:57:13.340Z,938.82
2017-07-31T03:57:41.424Z,938.82
2017-07-31T03:58:09.516Z,938.78
2017-07-31T03:58:37.705Z,938.81
2017-07-31T03:59:05.827Z,938.82
2017-07-31T03:59:34.075Z,938.81
2017-07-31T04:00:02.187Z,938.79
2017-07-31T04:00:30.315Z,938.79
2017-07-31T04:00:58.512Z,938.78
2017-07-31T04:01:26.707Z,938.78
2017-07-31T04:01:54.772Z,938.8
2017-07-31T04:02:23.022Z,938.78
2017-07-31T04:02:51.315Z,938.76
2017-07-31T04:03:19.507Z,938.78
2017-07-31T04:03:47.482Z,938.75
2017-07-31T04:04:15.595Z,938.76
2017-07-31T04:04:43.735Z,938.76
2017-07-31T04:05:11.832Z,938.75
2017-07-31T04:05:40.082Z,938.72
2017-07-31T04:06:08.219Z,938.73
2017-07-31T04:06:36.418Z,938.73
2017-07-31T04:07:04.610Z,938.74
2017-07-31T04:07:32.804Z,938.72
2017-07-31T04:08:01.074Z,938.72
2017-07-31T04:08:29.287Z,938.7
2017-07-31T04:08:57.485Z,938.7
2017-07-31T04:09:25.609Z,938.7
2017-07-31T04:09:53.762Z,938.7
2017-07-31T04:10:21.941Z,938.7
2017-07-31T04:10:50.226Z,938.68
2017-07-31T04:11:18.445Z,938.68
2017-07-31T04:11:46.521Z,938.65
2017-07-31T04:12:14.637Z,938.66
2017-07-31T04:12:43.000Z,938.64
2017-07-31T04:13:11.071Z,938.68
2017-07-31T04:13:39.169Z,938.66
2017-07-31T04:14:07.246Z,938.64
2017-07-31T04:14:35.359Z,938.61
2017-07-31T04:15:03.580Z,938.63
2017-07-31T04:15:31.708Z,938.65
2017-07-31T04:15:59.854Z,938.63
2017-07-31T04:16:28.066Z,938.6
2017-07-31T04:16:56.262Z,938.66
2017-07-31T04:17:24.405Z,938.62
2017-07-31T04:17:52.724Z,938.62
2017-07-31T04:18:20.761Z,938.63
2017-07-31T04:18:48.771Z,938.61
2017-07-31T04:19:16.920Z,938.6
2017-07-31T04:19:44.929Z,938.58
2017-07-31T04:20:12.959Z,938.59
2017-07-31T04:20:41.186Z,938.6
2017-07-31T04:21:09.372Z,938.59
2017-07-31T04:21:37.600Z,938.57
2017-07-31T04:22:05.766Z,938.57
2017-07-31T04:22:33.997Z,938.55
2017-07-31T04:23:02.123Z,938.53
2017-07-31T04:23:29.990Z,938.53
2017-07-31T04:23:58.204Z,938.55
2017-07-31T04:24:26.416Z,938.55
2017-07-31T04:24:54.495Z,938.55
2017-07-31T04:25:22.517Z,938.51
2017-07-31T04:25:50.672Z,938.52
2017-07-31T04:26:18.862Z,938.52
2017-07-31T04:26:47.080Z,938.53
2017-07-31T04:27:15.243Z,938.52
2017-07-31T04:27:43.404Z,938.51
2017-07-31T04:28:11.661Z,938.53
2017-07-31T04:28:39.884Z,938.51
2017-07-31T04:29:08.114Z,938.49
2017-07-31T04:29:36.201Z,938.5
2017-07-31T04:30:04.267Z,938.47
2017-07-31T04:30:32.293Z,938.48
2017-07-31T04:31:00.445Z,938.46
2017-07-31T04:31:28.532Z,938.5
2017-07-31T04:31:56.670Z,938.49
2017-07-31T04:32:24.823Z,938.48
2017-07-31T04:32:52.826Z,938.48
2017-07-31T04:33:21.151Z,938.48
2017-07-31T04:33:49.375Z,938.48
2017-07-31T04:34:17.477Z,938.49
2017-07-31T04:34:45.529Z,938.47
2017-07-31T04:35:13.594Z,938.45
2017-07-31T04:35:41.714Z,938.48
2017-07-31T04:36:09.908Z,938.45
2017-07-31T04:36:38.161Z,938.45
2017-07-31T04:37:06.291Z,938.46
2017-07-31T04:37:34.507Z,938.45
2017-07-31T04:38:02.583Z,938.47
2017-07-31T04:38:30.791Z,938.48
2017-07-31T04:38:58.880Z,938.47
2017-07-31T04:39:26.990Z,938.5
2017-07-31T04:39:55.083Z,938.48
2017-07-31T04:40:23.335Z,938.48
2017-07-31T04:40:51.430Z,938.46
2017-07-31T04:41:19.667Z,938.45
2017-07-31T04:41:47.935Z,938.46
2017-07-31T04:42:16.142Z,938.46
2017-07-31T04:42:44.193Z,938.44
2017-07-31T04:43:12.360Z,938.44
2017-07-31T04:43:40.488Z,938.45
2017-07-31T04:44:08.619Z,938.45
2017-07-31T04:44:36.850Z,938.46
2017-07-31T04:45:05.033Z,938.42
2017-07-31T04:45:33.260Z,938.44
2017-07-31T04:46:01.366Z,938.42
2017-07-31T04:46:29.560Z,938.42
2017-07-31T04:46:57.788Z,938.4
2017-07-31T04:47:25.902Z,938.39
2017-07-31T04:47:54.046Z,938.39
2017-07-31T04:48:22.333Z,938.38
2017-07-31T04:48:50.442Z,938.39
2017-07-31T04:49:18.674Z,938.37
2017-07-31T04:49:46.688Z,938.39
2017-07-31T04:50:14.920Z,938.38
2017-07-31T04:50:42.929Z,938.4
2017-07-31T04:51:11.136Z,938.38
2017-07-31T04:51:39.352Z,938.37
2017-07-31T04:52:07.526Z,938.37
2017-07-31T04:52:35.690Z,938.37
2017-07-31T04:53:03.912Z,938.35
2017-07-31T04:53:32.305Z,938.38
2017-07-31T04:54:00.329Z,938.37
2017-07-31T04:54:28.566Z,938.38
2017-07-31T04:54:56.780Z,938.34
2017-07-31T04:55:24.883Z,938.39
2017-07-31T04:55:53.112Z,938.36
2017-07-31T04:56:21.127Z,938.38
2017-07-31T04:56:49.257Z,938.37
2017-07-31T04:57:17.458Z,938.36
2017-07-31T04:57:45.578Z,938.37
2017-07-31T04:58:13.701Z,938.39
2017-07-31T04:58:41.962Z,938.37
2017-07-31T04:59:10.181Z,938.35
2017-07-31T04:59:38.471Z,938.38
2017-07-31T05:00:06.595Z,938.36
2017-07-31T05:00:34.738Z,938.37
2017-07-31T05:01:02.946Z,938.36
2017-07-31T05:01:31.150Z,938.38
2017-07-31T05:01:59.370Z,938.36
2017-07-31T05:02:27.501Z,938.35
2017-07-31T05:02:55.595Z,938.35
2017-07-31T05:03:23.902Z,938.34
2017-07-31T05:03:52.078Z,938.38
2017-07-31T05:04:20.198Z,938.37
2017-07-31T05:04:48.234Z,938.34
2017-07-31T05:05:16.303Z,938.37
2017-07-31T05:05:44.347Z,938.36
2017-07-31T05:06:12.623Z,938.35
2017-07-31T05:06:40.662Z,938.35
2017-07-31T05:07:08.757Z,938.36
2017-07-31T05:07:36.933Z,938.36
2017-07-31T05:08:05.059Z,938.37
2017-07-31T05:08:33.527Z,938.32
2017-07-31T05:09:01.656Z,938.3
2017-07-31T05:09:29.868Z,938.31
2017-07-31T05:09:58.056Z,938.32
2017-07-31T05:10:26.259Z,938.33
2017-07-31T05:10:54.366Z,938.34
2017-07-31T05:11:22.461Z,938.31
2017-07-31T05:11:50.620Z,938.29
2017-07-31T05:12:18.750Z,938.31
2017-07-31T05:12:46.977Z,938.3
2017-07-31T05:13:15.188Z,938.27
2017-07-31T05:13:43.553Z,938.28
2017-07-31T05:14:11.620Z,938.27
2017-07-31T05:14:39.721Z,938.3
2017-07-31T05:15:07.881Z,938.26
2017-07-31T05:15:35.949Z,938.24
2017-07-31T05:16:04.156Z,938.25
2017-07-31T05:16:32.412Z,938.2
2017-07-31T05:17:00.401Z,938.22
2017-07-31T05:17:28.355Z,938.25
2017-07-31T05:17:56.556Z,938.21
2017-07-31T05:18:24.651Z,938.2
2017-07-31T05:18:52.857Z,938.22
2017-07-31T05:19:20.937Z,938.18
2017-07-31T05:19:49.150Z,938.17
2017-07-31T05:20:17.352Z,938.17
2017-07-31T05:20:45.448Z,938.18
2017-07-31T05:21:13.686Z,938.21
2017-07-31T05:21:41.614Z,938.18
2017-07-31T05:22:09.777Z,938.19
2017-07-31T05:22:37.892Z,938.17
2017-07-31T05:23:06.016Z,938.17
2017-07-31T05:23:34.191Z,938.14
2017-07-31T05:24:02.538Z,938.16
2017-07-31T05:24:30.749Z,938.17
2017-07-31T05:24:58.876Z,938.18
2017-07-31T05:25:27.084Z,938.16
2017-07-31T05:25:55.126Z,938.19
2017-07-31T05:26:23.333Z,938.2
2017-07-31T05:26:51.435Z,938.17
2017-07-31T05:27:19.640Z,938.16
2017-07-31T05:27:47.883Z,938.19
2017-07-31T05:28:16.093Z,938.14
2017-07-31T05:28:44.462Z,938.21
2017-07-31T05:29:12.682Z,938.2
2017-07-31T05:29:40.902Z,938.17
2017-07-31T05:30:09.145Z,938.2
2017-07-31T05:30:37.260Z,938.19
2017-07-31T05:31:05.431Z,938.18
2017-07-31T05:31:33.441Z,938.17
2017-07-31T05:32:01.592Z,938.19
2017-07-31T05:32:29.720Z,938.17
2017-07-31T05:32:57.916Z,938.13
2017-07-31T05:33:26.128Z,938.17
2017-07-31T05:33:54.431Z,938.17
2017-07-31T05:34:22.490Z,938.15
2017-07-31T05:34:50.708Z,938.15
2017-07-31T05:35:18.738Z,938.14
2017-07-31T05:35:46.900Z,938.18
2017-07-31T05:36:15.107Z,938.12
2017-07-31T05:36:43.299Z,938.12
2017-07-31T05:37:11.449Z,938.12
2017-07-31T05:37:39.573Z,938.14
2017-07-31T05:38:07.571Z,938.14
2017-07-31T05:38:35.829Z,938.12
2017-07-31T05:39:03.999Z,938.12
2017-07-31T05:39:32.131Z,938.1
2017-07-31T05:40:00.287Z,938.09
2017-07-31T05:40:28.376Z,938.11
2017-07-31T05:40:56.337Z,938.12
2017-07-31T05:41:24.454Z,938.09
2017-07-31T05:41:52.649Z,938.09
2017-07-31T05:42:20.775Z,938.1
2017-07-31T05:42:48.804Z,938.09
2017-07-31T05:43:16.913Z,938.06
2017-07-31T05:43:44.990Z,938.07
2017-07-31T05:44:13.319Z,938.1
2017-07-31T05:44:41.507Z,938.05
2017-07-31T05:45:09.598Z,938.05
2017-07-31T05:45:37.787Z,938.06
2017-07-31T05:46:05.939Z,938.05
2017-07-31T05:46:34.165Z,938.05
2017-07-31T05:47:02.287Z,938.01
2017-07-31T05:47:30.499Z,938.05
2017-07-31T05:47:58.704Z,938.05
2017-07-31T05:48:26.806Z,938.02
2017-07-31T05:48:54.863Z,938
2017-07-31T05:49:22.984Z,938.03
2017-07-31T05:49:51.091Z,937.99
2017-07-31T05:50:19.174Z,938
2017-07-31T05:50:47.345Z,937.98
2017-07-31T05:51:15.422Z,938.03
2017-07-31T05:51:43.558Z,938.02
2017-07-31T05:52:11.493Z,937.96
2017-07-31T05:52:39.408Z,938.02
2017-07-31T05:53:07.406Z,937.99